Terminal Aerodrome Forecast
Issued by NWS

Home | Current Version | Previous Version | Text Only | Print | Product List | Glossary On
Versions: 1 2 3 4 5 6 7 8 9 10 11 12 13
000
FTUS42 TJSJ 290500 RRA
TAFJMZ
TAF
TJMZ 290539Z 2906/3006 VRB02KT P6SM SKC
     FM291000 07005KT P6SM FEW030
     FM291530 27010KT P6SM VCSH SCT025 BKN040
     FM292300 07005KT P6SM FEW030 SCT060
      AMD NOT SKED TIL 291100=

USA.gov is the U.S. government's official web portal to all federal, state and local government web resources and services.